Luqa, Malta

7:00 AM CEST en Septiembre 24, 2017 (GMT +0200)
Swatar | | Change Station

Alt 112 ft 35.90 °N, 14.48 °E | Updated 30 seconds ago

Nublado
Nublado
75.2 ° F
Sensación térmica 76 ° F
N
7.3
Viento Variable Viento desde OSO
Gusts 29.9 mph

Hoy
Alta -- | Baja -- ° F
--% Posibilidad de precipitaciones
Ayer
Alta -- | Baja -- ° F
Precip. -- pul
Presión 30.06 pul
Visibilidad 6.2 Millas
Nubes Nubes dispersas 1900 ft
Nubes dispersas 3000 ft
Índice de calor 76 ° F
Punto de rocío 69 ° F
Humedad 80%
Precipitaciones 0.00 pul
Espesor de la nieve No disponible.
6:51 AM 6:55 PM
Creciente, 16% visible
METAR LMML 240445Z 19008KT 9999 TS SCT019 SCT030CB 24/19 Q1018 TEMPO VRB15G25KT 4000 TSRA BKN020CB
Presión 30.06 pul
Visibilidad 6.2 Millas
Nubes Nubes dispersas 1900 ft
Nubes dispersas 3000 ft
Índice de calor 76 ° F
Punto de rocío 69 ° F
Humedad 80%
Precipitaciones 0.00 pul
Espesor de la nieve No disponible.
6:51 AM 6:55 PM
Creciente, 16% visible
METAR LMML 240445Z 19008KT 9999 TS SCT019 SCT030CB 24/19 Q1018 TEMPO VRB15G25KT 4000 TSRA BKN020CB

Get Severe Weather Alerts

Thanks for signing up!

Be on the lookout for a verification email in your inbox.

You'll start receiving the daily forecast at 6 AM.

×

10-Day Weather Forecast

×

Almanac

Astronomía

Sep. 24, 2017 Salida Puesta
Hora real
Crepúsculo civil
Crepúsculo náutico
Crepúsculo astronómico
Luna
Horas de luz
Horas de luz
Tomorrow will be .
, % of the Moon is Illuminated

Extremos de hoy

Máximos del país Bajas del país

Community

WunderPhotos

Category 6

Welcome to Category 6. This is the collective home for Weather Underground's featured writeups by Dr. Jeff Masters (right), Bob Henson (left), Chris Burt, and other regular contributors.

Nearby

Calidad del aire

  Calidad del aire Índice AQ Contaminante
Not available.

Grosos de nieve

Estación Profundido Altura

Actividad de terremotos

Ciudad Distance Mag. Tiempo y dato
Magnitud mínima muestra es 2,5.

Temperaturas de aguas costeras

Lugar Temperatura

Stations

Estaciones meteorológicas cercanas

Ubicación de la estación Temp. Vientos helados Punto de rocío Humedad Viento Precip. Alt Actualizado Tipo